sensor_id;sensor_type;location;lat;lon;timestamp;P1;durP1;ratioP1;P2;durP2;ratioP2
33403;SDS011;19751;40.274;18.268;2024-03-17T00:00:20;15.25;;;9.45;;
33403;SDS011;19751;40.274;18.268;2024-03-17T00:02:46;16.88;;;9.80;;
33403;SDS011;19751;40.274;18.268;2024-03-17T00:05:12;11.02;;;9.13;;
33403;SDS011;19751;40.274;18.268;2024-03-17T00:07:38;12.43;;;8.55;;
33403;SDS011;19751;40.274;18.268;2024-03-17T00:10:04;12.75;;;9.50;;
33403;SDS011;19751;40.274;18.268;2024-03-17T00:12:32;10.18;;;7.78;;
33403;SDS011;19751;40.274;18.268;2024-03-17T00:15:00;17.98;;;8.85;;
33403;SDS011;19751;40.274;18.268;2024-03-17T00:17:26;15.77;;;9.55;;
33403;SDS011;19751;40.274;18.268;2024-03-17T00:19:51;12.35;;;8.68;;
33403;SDS011;19751;40.274;18.268;2024-03-17T00:22:17;16.08;;;8.52;;
33403;SDS011;19751;40.274;18.268;2024-03-17T00:24:42;15.63;;;9.70;;
33403;SDS011;19751;40.274;18.268;2024-03-17T00:27:08;14.20;;;9.43;;
33403;SDS011;19751;40.274;18.268;2024-03-17T00:29:34;12.68;;;9.32;;
33403;SDS011;19751;40.274;18.268;2024-03-17T00:31:59;15.63;;;8.95;;
33403;SDS011;19751;40.274;18.268;2024-03-17T00:34:25;14.55;;;10.18;;
33403;SDS011;19751;40.274;18.268;2024-03-17T00:36:50;14.55;;;10.13;;
33403;SDS011;19751;40.274;18.268;2024-03-17T00:39:19;15.30;;;10.45;;
33403;SDS011;19751;40.274;18.268;2024-03-17T00:41:44;14.68;;;10.77;;
33403;SDS011;19751;40.274;18.268;2024-03-17T00:44:10;19.75;;;10.05;;
33403;SDS011;19751;40.274;18.268;2024-03-17T00:46:35;13.65;;;10.05;;
33403;SDS011;19751;40.274;18.268;2024-03-17T00:49:01;13.23;;;9.93;;
33403;SDS011;19751;40.274;18.268;2024-03-17T00:51:26;13.77;;;8.95;;
33403;SDS011;19751;40.274;18.268;2024-03-17T00:53:52;13.95;;;9.27;;
33403;SDS011;19751;40.274;18.268;2024-03-17T00:56:17;16.67;;;10.27;;
33403;SDS011;19751;40.274;18.268;2024-03-17T00:58:43;14.00;;;9.30;;
33403;SDS011;19751;40.274;18.268;2024-03-17T01:01:10;12.13;;;8.27;;
33403;SDS011;19751;40.274;18.268;2024-03-17T01:03:36;11.95;;;7.35;;
33403;SDS011;19751;40.274;18.268;2024-03-17T01:06:04;15.68;;;9.13;;
33403;SDS011;19751;40.274;18.268;2024-03-17T01:08:30;12.52;;;8.13;;
33403;SDS011;19751;40.274;18.268;2024-03-17T01:10:56;13.38;;;9.35;;
33403;SDS011;19751;40.274;18.268;2024-03-17T01:13:21;13.10;;;8.15;;
33403;SDS011;19751;40.274;18.268;2024-03-17T01:15:50;11.10;;;7.80;;
33403;SDS011;19751;40.274;18.268;2024-03-17T01:18:17;12.52;;;9.18;;
33403;SDS011;19751;40.274;18.268;2024-03-17T01:20:43;13.88;;;9.38;;
33403;SDS011;19751;40.274;18.268;2024-03-17T01:23:09;14.25;;;10.75;;
33403;SDS011;19751;40.274;18.268;2024-03-17T01:25:34;12.48;;;9.55;;
33403;SDS011;19751;40.274;18.268;2024-03-17T01:28:03;13.70;;;8.98;;
33403;SDS011;19751;40.274;18.268;2024-03-17T01:30:29;10.82;;;8.00;;
33403;SDS011;19751;40.274;18.268;2024-03-17T01:32:55;13.60;;;8.68;;
33403;SDS011;19751;40.274;18.268;2024-03-17T01:35:20;12.63;;;8.65;;
33403;SDS011;19751;40.274;18.268;2024-03-17T01:37:47;10.93;;;7.97;;
33403;SDS011;19751;40.274;18.268;2024-03-17T01:40:13;13.48;;;8.07;;
33403;SDS011;19751;40.274;18.268;2024-03-17T01:42:39;10.52;;;7.47;;
33403;SDS011;19751;40.274;18.268;2024-03-17T01:45:18;13.63;;;8.48;;
33403;SDS011;19751;40.274;18.268;2024-03-17T01:47:54;12.75;;;9.23;;
33403;SDS011;19751;40.274;18.268;2024-03-17T01:50:28;9.80;;;8.18;;
33403;SDS011;19751;40.274;18.268;2024-03-17T01:55:25;11.00;;;7.20;;
33403;SDS011;19751;40.274;18.268;2024-03-17T01:57:52;13.27;;;8.50;;
33403;SDS011;19751;40.274;18.268;2024-03-17T02:00:18;12.85;;;7.50;;
33403;SDS011;19751;40.274;18.268;2024-03-17T02:02:44;10.00;;;7.50;;
33403;SDS011;19751;40.274;18.268;2024-03-17T02:05:09;12.98;;;7.47;;
33403;SDS011;19751;40.274;18.268;2024-03-17T02:07:35;11.43;;;7.28;;
33403;SDS011;19751;40.274;18.268;2024-03-17T02:10:01;8.27;;;6.15;;
33403;SDS011;19751;40.274;18.268;2024-03-17T02:12:28;9.90;;;6.70;;
33403;SDS011;19751;40.274;18.268;2024-03-17T02:14:56;9.65;;;7.32;;
33403;SDS011;19751;40.274;18.268;2024-03-17T02:17:24;11.52;;;7.20;;
33403;SDS011;19751;40.274;18.268;2024-03-17T02:19:50;10.60;;;7.20;;
33403;SDS011;19751;40.274;18.268;2024-03-17T02:22:19;9.77;;;6.30;;
33403;SDS011;19751;40.274;18.268;2024-03-17T02:24:45;9.70;;;7.32;;
33403;SDS011;19751;40.274;18.268;2024-03-17T02:27:10;12.10;;;7.63;;
33403;SDS011;19751;40.274;18.268;2024-03-17T02:29:36;12.00;;;7.30;;
33403;SDS011;19751;40.274;18.268;2024-03-17T02:32:08;11.82;;;7.72;;
33403;SDS011;19751;40.274;18.268;2024-03-17T02:34:34;12.40;;;8.00;;
33403;SDS011;19751;40.274;18.268;2024-03-17T02:37:00;11.27;;;6.93;;
33403;SDS011;19751;40.274;18.268;2024-03-17T02:39:26;10.65;;;7.32;;
33403;SDS011;19751;40.274;18.268;2024-03-17T02:42:05;9.65;;;7.22;;
33403;SDS011;19751;40.274;18.268;2024-03-17T02:44:32;10.60;;;6.78;;
33403;SDS011;19751;40.274;18.268;2024-03-17T02:46:58;12.25;;;6.82;;
33403;SDS011;19751;40.274;18.268;2024-03-17T02:49:25;10.73;;;6.97;;
33403;SDS011;19751;40.274;18.268;2024-03-17T02:51:52;9.57;;;6.75;;
33403;SDS011;19751;40.274;18.268;2024-03-17T02:54:21;12.80;;;7.25;;
33403;SDS011;19751;40.274;18.268;2024-03-17T02:56:48;8.80;;;7.10;;
33403;SDS011;19751;40.274;18.268;2024-03-17T02:59:14;9.90;;;6.53;;
33403;SDS011;19751;40.274;18.268;2024-03-17T03:01:39;8.95;;;7.68;;
33403;SDS011;19751;40.274;18.268;2024-03-17T03:04:05;8.07;;;6.13;;
33403;SDS011;19751;40.274;18.268;2024-03-17T03:06:31;15.57;;;7.90;;
33403;SDS011;19751;40.274;18.268;2024-03-17T03:08:58;11.13;;;6.63;;
33403;SDS011;19751;40.274;18.268;2024-03-17T03:11:23;8.00;;;5.47;;
33403;SDS011;19751;40.274;18.268;2024-03-17T03:13:49;10.73;;;6.88;;
33403;SDS011;19751;40.274;18.268;2024-03-17T03:16:14;10.18;;;6.85;;
33403;SDS011;19751;40.274;18.268;2024-03-17T03:18:40;8.02;;;6.85;;
33403;SDS011;19751;40.274;18.268;2024-03-17T03:21:06;13.20;;;7.90;;
33403;SDS011;19751;40.274;18.268;2024-03-17T03:23:32;8.50;;;6.20;;
33403;SDS011;19751;40.274;18.268;2024-03-17T03:25:59;8.20;;;5.93;;
33403;SDS011;19751;40.274;18.268;2024-03-17T03:28:26;10.30;;;6.47;;
33403;SDS011;19751;40.274;18.268;2024-03-17T03:30:52;10.80;;;7.10;;
33403;SDS011;19751;40.274;18.268;2024-03-17T03:33:18;10.73;;;6.93;;
33403;SDS011;19751;40.274;18.268;2024-03-17T03:35:44;9.00;;;6.63;;
33403;SDS011;19751;40.274;18.268;2024-03-17T03:38:10;11.15;;;6.95;;
33403;SDS011;19751;40.274;18.268;2024-03-17T03:40:36;12.75;;;8.10;;
33403;SDS011;19751;40.274;18.268;2024-03-17T03:43:02;9.23;;;6.90;;
33403;SDS011;19751;40.274;18.268;2024-03-17T03:45:27;13.50;;;8.90;;
33403;SDS011;19751;40.274;18.268;2024-03-17T03:47:53;14.48;;;9.20;;
33403;SDS011;19751;40.274;18.268;2024-03-17T03:50:21;12.70;;;8.98;;
33403;SDS011;19751;40.274;18.268;2024-03-17T03:52:48;13.07;;;8.18;;
33403;SDS011;19751;40.274;18.268;2024-03-17T03:55:15;11.10;;;8.23;;
33403;SDS011;19751;40.274;18.268;2024-03-17T03:57:42;15.80;;;9.48;;
33403;SDS011;19751;40.274;18.268;2024-03-17T04:00:08;10.57;;;8.38;;
33403;SDS011;19751;40.274;18.268;2024-03-17T04:02:47;14.55;;;9.27;;
33403;SDS011;19751;40.274;18.268;2024-03-17T04:05:16;14.07;;;8.30;;
33403;SDS011;19751;40.274;18.268;2024-03-17T04:07:42;13.43;;;8.63;;
33403;SDS011;19751;40.274;18.268;2024-03-17T04:10:09;11.75;;;7.90;;
33403;SDS011;19751;40.274;18.268;2024-03-17T04:12:35;11.18;;;8.68;;
33403;SDS011;19751;40.274;18.268;2024-03-17T04:15:01;11.48;;;8.13;;
33403;SDS011;19751;40.274;18.268;2024-03-17T04:17:27;9.50;;;7.55;;
33403;SDS011;19751;40.274;18.268;2024-03-17T04:19:54;14.35;;;9.55;;
33403;SDS011;19751;40.274;18.268;2024-03-17T04:22:20;11.50;;;8.38;;
33403;SDS011;19751;40.274;18.268;2024-03-17T04:24:47;13.80;;;7.95;;
33403;SDS011;19751;40.274;18.268;2024-03-17T04:27:18;12.18;;;8.27;;
33403;SDS011;19751;40.274;18.268;2024-03-17T04:29:46;11.43;;;7.85;;
33403;SDS011;19751;40.274;18.268;2024-03-17T04:32:14;10.75;;;7.40;;
33403;SDS011;19751;40.274;18.268;2024-03-17T04:34:40;10.15;;;7.75;;
33403;SDS011;19751;40.274;18.268;2024-03-17T04:37:05;10.80;;;8.93;;
33403;SDS011;19751;40.274;18.268;2024-03-17T04:39:31;16.23;;;10.05;;
33403;SDS011;19751;40.274;18.268;2024-03-17T04:41:56;15.93;;;10.32;;
33403;SDS011;19751;40.274;18.268;2024-03-17T04:44:22;12.77;;;8.95;;
33403;SDS011;19751;40.274;18.268;2024-03-17T04:46:48;14.48;;;9.38;;
33403;SDS011;19751;40.274;18.268;2024-03-17T04:49:13;11.40;;;7.82;;
33403;SDS011;19751;40.274;18.268;2024-03-17T04:51:39;14.98;;;8.85;;
33403;SDS011;19751;40.274;18.268;2024-03-17T04:54:04;11.35;;;7.90;;
33403;SDS011;19751;40.274;18.268;2024-03-17T04:56:32;14.32;;;8.73;;
33403;SDS011;19751;40.274;18.268;2024-03-17T04:58:58;11.82;;;8.13;;
33403;SDS011;19751;40.274;18.268;2024-03-17T05:01:23;13.30;;;8.25;;
33403;SDS011;19751;40.274;18.268;2024-03-17T05:03:52;14.68;;;9.15;;
33403;SDS011;19751;40.274;18.268;2024-03-17T05:06:18;11.18;;;8.23;;
33403;SDS011;19751;40.274;18.268;2024-03-17T05:08:43;9.60;;;7.70;;
33403;SDS011;19751;40.274;18.268;2024-03-17T05:11:09;13.05;;;9.60;;
33403;SDS011;19751;40.274;18.268;2024-03-17T05:13:35;10.70;;;8.55;;
33403;SDS011;19751;40.274;18.268;2024-03-17T05:16:03;10.23;;;8.10;;
33403;SDS011;19751;40.274;18.268;2024-03-17T05:18:29;13.98;;;7.88;;
33403;SDS011;19751;40.274;18.268;2024-03-17T05:21:01;11.55;;;7.35;;
33403;SDS011;19751;40.274;18.268;2024-03-17T05:23:29;11.07;;;7.95;;
33403;SDS011;19751;40.274;18.268;2024-03-17T05:25:56;11.38;;;7.20;;
33403;SDS011;19751;40.274;18.268;2024-03-17T05:28:23;11.10;;;7.63;;
33403;SDS011;19751;40.274;18.268;2024-03-17T05:30:49;10.75;;;8.88;;
33403;SDS011;19751;40.274;18.268;2024-03-17T05:33:16;12.43;;;7.35;;
33403;SDS011;19751;40.274;18.268;2024-03-17T05:35:52;8.68;;;6.38;;
33403;SDS011;19751;40.274;18.268;2024-03-17T05:38:21;8.27;;;6.10;;
33403;SDS011;19751;40.274;18.268;2024-03-17T05:40:59;7.78;;;5.80;;
33403;SDS011;19751;40.274;18.268;2024-03-17T05:43:26;5.38;;;4.88;;
33403;SDS011;19751;40.274;18.268;2024-03-17T05:45:53;6.07;;;5.45;;
33403;SDS011;19751;40.274;18.268;2024-03-17T05:48:20;6.18;;;3.97;;
33403;SDS011;19751;40.274;18.268;2024-03-17T05:50:46;5.53;;;4.07;;
33403;SDS011;19751;40.274;18.268;2024-03-17T05:53:11;4.50;;;3.33;;
33403;SDS011;19751;40.274;18.268;2024-03-17T05:55:37;3.10;;;2.80;;
33403;SDS011;19751;40.274;18.268;2024-03-17T05:58:03;5.25;;;2.75;;
33403;SDS011;19751;40.274;18.268;2024-03-17T06:00:28;4.55;;;3.00;;
33403;SDS011;19751;40.274;18.268;2024-03-17T06:02:55;3.47;;;2.08;;
33403;SDS011;19751;40.274;18.268;2024-03-17T06:05:21;4.15;;;2.40;;
33403;SDS011;19751;40.274;18.268;2024-03-17T06:07:47;4.18;;;2.35;;
33403;SDS011;19751;40.274;18.268;2024-03-17T06:10:13;8.27;;;2.42;;
33403;SDS011;19751;40.274;18.268;2024-03-17T06:12:38;3.42;;;2.28;;
33403;SDS011;19751;40.274;18.268;2024-03-17T06:15:04;4.38;;;2.08;;
33403;SDS011;19751;40.274;18.268;2024-03-17T06:17:31;5.18;;;2.75;;
33403;SDS011;19751;40.274;18.268;2024-03-17T06:19:56;4.15;;;2.70;;
33403;SDS011;19751;40.274;18.268;2024-03-17T06:22:22;3.22;;;2.58;;
33403;SDS011;19751;40.274;18.268;2024-03-17T06:24:48;3.50;;;2.28;;
33403;SDS011;19751;40.274;18.268;2024-03-17T06:27:15;3.13;;;2.10;;
33403;SDS011;19751;40.274;18.268;2024-03-17T06:29:41;3.65;;;2.25;;
33403;SDS011;19751;40.274;18.268;2024-03-17T06:32:07;3.65;;;2.47;;
33403;SDS011;19751;40.274;18.268;2024-03-17T06:34:33;2.58;;;2.35;;
33403;SDS011;19751;40.274;18.268;2024-03-17T06:36:59;5.05;;;2.75;;
33403;SDS011;19751;40.274;18.268;2024-03-17T06:39:25;4.85;;;2.53;;
33403;SDS011;19751;40.274;18.268;2024-03-17T06:41:51;2.88;;;2.08;;
33403;SDS011;19751;40.274;18.268;2024-03-17T06:44:16;3.78;;;2.28;;
33403;SDS011;19751;40.274;18.268;2024-03-17T06:46:42;5.90;;;2.13;;
33403;SDS011;19751;40.274;18.268;2024-03-17T06:49:09;3.05;;;2.00;;
33403;SDS011;19751;40.274;18.268;2024-03-17T06:51:34;2.75;;;2.08;;
33403;SDS011;19751;40.274;18.268;2024-03-17T06:54:00;2.33;;;1.85;;
33403;SDS011;19751;40.274;18.268;2024-03-17T06:56:26;4.50;;;2.30;;
33403;SDS011;19751;40.274;18.268;2024-03-17T06:58:51;7.10;;;2.55;;
33403;SDS011;19751;40.274;18.268;2024-03-17T07:01:17;7.10;;;2.90;;
33403;SDS011;19751;40.274;18.268;2024-03-17T07:03:42;6.47;;;2.22;;
33403;SDS011;19751;40.274;18.268;2024-03-17T07:06:09;12.65;;;3.13;;
33403;SDS011;19751;40.274;18.268;2024-03-17T07:08:35;3.53;;;2.20;;
33403;SDS011;19751;40.274;18.268;2024-03-17T07:11:04;13.38;;;3.13;;
33403;SDS011;19751;40.274;18.268;2024-03-17T07:13:35;5.20;;;2.63;;
33403;SDS011;19751;40.274;18.268;2024-03-17T07:16:03;5.03;;;2.58;;
33403;SDS011;19751;40.274;18.268;2024-03-17T07:18:31;3.88;;;2.28;;
33403;SDS011;19751;40.274;18.268;2024-03-17T07:20:57;4.55;;;2.22;;
33403;SDS011;19751;40.274;18.268;2024-03-17T07:23:30;4.30;;;2.45;;
33403;SDS011;19751;40.274;18.268;2024-03-17T07:26:00;3.80;;;2.00;;
33403;SDS011;19751;40.274;18.268;2024-03-17T07:28:26;5.28;;;2.00;;
33403;SDS011;19751;40.274;18.268;2024-03-17T07:30:55;3.72;;;2.72;;
33403;SDS011;19751;40.274;18.268;2024-03-17T07:33:22;2.83;;;1.98;;
33403;SDS011;19751;40.274;18.268;2024-03-17T07:35:52;2.13;;;1.83;;
33403;SDS011;19751;40.274;18.268;2024-03-17T07:38:20;8.25;;;3.55;;
33403;SDS011;19751;40.274;18.268;2024-03-17T07:40:56;4.70;;;2.80;;
33403;SDS011;19751;40.274;18.268;2024-03-17T07:43:22;5.47;;;2.45;;
33403;SDS011;19751;40.274;18.268;2024-03-17T07:45:56;5.32;;;3.20;;
33403;SDS011;19751;40.274;18.268;2024-03-17T07:48:29;4.57;;;1.73;;
33403;SDS011;19751;40.274;18.268;2024-03-17T07:50:59;3.80;;;1.67;;
33403;SDS011;19751;40.274;18.268;2024-03-17T07:53:31;6.68;;;1.70;;
33403;SDS011;19751;40.274;18.268;2024-03-17T07:56:00;2.97;;;1.55;;
33403;SDS011;19751;40.274;18.268;2024-03-17T07:58:29;3.70;;;1.52;;
33403;SDS011;19751;40.274;18.268;2024-03-17T08:00:58;3.60;;;1.45;;
33403;SDS011;19751;40.274;18.268;2024-03-17T08:03:28;9.82;;;1.88;;
33403;SDS011;19751;40.274;18.268;2024-03-17T08:05:54;5.75;;;1.60;;
33403;SDS011;19751;40.274;18.268;2024-03-17T08:08:20;6.15;;;1.48;;
33403;SDS011;19751;40.274;18.268;2024-03-17T08:10:45;3.30;;;1.65;;
33403;SDS011;19751;40.274;18.268;2024-03-17T08:13:13;3.53;;;1.20;;
33403;SDS011;19751;40.274;18.268;2024-03-17T08:15:45;4.75;;;1.73;;
33403;SDS011;19751;40.274;18.268;2024-03-17T08:18:12;6.20;;;1.50;;
33403;SDS011;19751;40.274;18.268;2024-03-17T08:20:41;3.78;;;1.23;;
33403;SDS011;19751;40.274;18.268;2024-03-17T08:23:08;3.22;;;1.20;;
33403;SDS011;19751;40.274;18.268;2024-03-17T08:25:36;2.65;;;1.52;;
33403;SDS011;19751;40.274;18.268;2024-03-17T08:28:02;6.03;;;1.15;;
33403;SDS011;19751;40.274;18.268;2024-03-17T08:30:27;5.20;;;1.42;;
33403;SDS011;19751;40.274;18.268;2024-03-17T08:32:55;5.70;;;1.35;;
33403;SDS011;19751;40.274;18.268;2024-03-17T08:35:21;4.13;;;1.02;;
33403;SDS011;19751;40.274;18.268;2024-03-17T08:37:46;3.10;;;1.40;;
33403;SDS011;19751;40.274;18.268;2024-03-17T08:40:12;3.70;;;1.20;;
33403;SDS011;19751;40.274;18.268;2024-03-17T08:42:39;1.70;;;1.27;;
33403;SDS011;19751;40.274;18.268;2024-03-17T08:45:05;4.40;;;1.67;;
33403;SDS011;19751;40.274;18.268;2024-03-17T08:47:31;4.22;;;1.25;;
33403;SDS011;19751;40.274;18.268;2024-03-17T08:49:56;6.70;;;1.27;;
33403;SDS011;19751;40.274;18.268;2024-03-17T08:52:23;7.45;;;2.67;;
33403;SDS011;19751;40.274;18.268;2024-03-17T08:54:48;5.45;;;1.45;;
33403;SDS011;19751;40.274;18.268;2024-03-17T08:57:16;7.07;;;1.50;;
33403;SDS011;19751;40.274;18.268;2024-03-17T08:59:42;3.15;;;1.30;;
33403;SDS011;19751;40.274;18.268;2024-03-17T09:02:09;2.97;;;1.00;;
33403;SDS011;19751;40.274;18.268;2024-03-17T09:04:39;4.72;;;1.33;;
33403;SDS011;19751;40.274;18.268;2024-03-17T09:07:04;3.13;;;1.33;;
33403;SDS011;19751;40.274;18.268;2024-03-17T09:09:29;4.78;;;1.40;;
33403;SDS011;19751;40.274;18.268;2024-03-17T09:11:55;5.63;;;1.85;;
33403;SDS011;19751;40.274;18.268;2024-03-17T09:14:20;3.20;;;1.13;;
33403;SDS011;19751;40.274;18.268;2024-03-17T09:16:47;5.57;;;1.42;;
33403;SDS011;19751;40.274;18.268;2024-03-17T09:19:13;2.63;;;1.00;;
33403;SDS011;19751;40.274;18.268;2024-03-17T09:21:38;7.90;;;1.67;;
33403;SDS011;19751;40.274;18.268;2024-03-17T09:24:05;6.28;;;1.42;;
33403;SDS011;19751;40.274;18.268;2024-03-17T09:26:32;1.92;;;0.98;;
33403;SDS011;19751;40.274;18.268;2024-03-17T09:28:59;6.22;;;1.73;;
33403;SDS011;19751;40.274;18.268;2024-03-17T09:31:25;6.30;;;1.85;;
33403;SDS011;19751;40.274;18.268;2024-03-17T09:33:51;5.68;;;1.52;;
33403;SDS011;19751;40.274;18.268;2024-03-17T09:36:16;4.88;;;1.67;;
33403;SDS011;19751;40.274;18.268;2024-03-17T09:38:43;2.97;;;1.30;;
33403;SDS011;19751;40.274;18.268;2024-03-17T09:41:19;4.28;;;2.03;;
33403;SDS011;19751;40.274;18.268;2024-03-17T09:43:56;7.70;;;1.73;;
33403;SDS011;19751;40.274;18.268;2024-03-17T09:46:26;3.60;;;1.60;;
33403;SDS011;19751;40.274;18.268;2024-03-17T09:48:54;26.45;;;2.60;;
33403;SDS011;19751;40.274;18.268;2024-03-17T09:51:23;7.40;;;1.92;;
33403;SDS011;19751;40.274;18.268;2024-03-17T09:53:50;6.95;;;2.53;;
33403;SDS011;19751;40.274;18.268;2024-03-17T09:56:17;6.65;;;1.63;;
33403;SDS011;19751;40.274;18.268;2024-03-17T09:58:47;3.65;;;1.02;;
33403;SDS011;19751;40.274;18.268;2024-03-17T10:01:13;3.83;;;1.20;;
33403;SDS011;19751;40.274;18.268;2024-03-17T10:03:52;2.50;;;1.30;;
33403;SDS011;19751;40.274;18.268;2024-03-17T10:06:22;2.47;;;1.27;;
33403;SDS011;19751;40.274;18.268;2024-03-17T10:08:49;5.00;;;1.30;;
33403;SDS011;19751;40.274;18.268;2024-03-17T10:11:18;1.45;;;0.90;;
33403;SDS011;19751;40.274;18.268;2024-03-17T10:14:09;1.83;;;1.00;;
33403;SDS011;19751;40.274;18.268;2024-03-17T10:16:35;6.65;;;0.85;;
33403;SDS011;19751;40.274;18.268;2024-03-17T10:21:31;5.38;;;1.20;;
33403;SDS011;19751;40.274;18.268;2024-03-17T10:24:42;4.40;;;1.27;;
33403;SDS011;19751;40.274;18.268;2024-03-17T10:29:25;3.92;;;1.23;;
33403;SDS011;19751;40.274;18.268;2024-03-17T10:31:51;3.42;;;1.15;;
33403;SDS011;19751;40.274;18.268;2024-03-17T10:34:19;2.65;;;1.23;;
33403;SDS011;19751;40.274;18.268;2024-03-17T10:36:45;6.43;;;1.08;;
33403;SDS011;19751;40.274;18.268;2024-03-17T10:39:48;5.05;;;1.70;;
33403;SDS011;19751;40.274;18.268;2024-03-17T10:42:09;2.88;;;0.95;;
33403;SDS011;19751;40.274;18.268;2024-03-17T10:44:39;2.25;;;1.15;;
33403;SDS011;19751;40.274;18.268;2024-03-17T10:47:07;3.25;;;1.15;;
33403;SDS011;19751;40.274;18.268;2024-03-17T10:49:40;2.53;;;1.00;;
33403;SDS011;19751;40.274;18.268;2024-03-17T10:52:15;5.55;;;1.40;;
33403;SDS011;19751;40.274;18.268;2024-03-17T10:54:46;2.72;;;1.10;;
33403;SDS011;19751;40.274;18.268;2024-03-17T11:02:33;4.43;;;1.23;;
33403;SDS011;19751;40.274;18.268;2024-03-17T11:07:37;4.25;;;1.25;;
33403;SDS011;19751;40.274;18.268;2024-03-17T11:10:08;3.83;;;1.48;;
33403;SDS011;19751;40.274;18.268;2024-03-17T11:17:55;15.35;;;3.00;;
33403;SDS011;19751;40.274;18.268;2024-03-17T11:23:40;5.70;;;1.73;;
33403;SDS011;19751;40.274;18.268;2024-03-17T11:26:07;3.92;;;1.48;;
33403;SDS011;19751;40.274;18.268;2024-03-17T11:34:06;5.20;;;1.50;;
33403;SDS011;19751;40.274;18.268;2024-03-17T11:39:16;3.38;;;1.42;;
33403;SDS011;19751;40.274;18.268;2024-03-17T11:41:44;4.53;;;1.67;;
33403;SDS011;19751;40.274;18.268;2024-03-17T11:49:30;5.30;;;1.67;;
33403;SDS011;19751;40.274;18.268;2024-03-17T11:52:09;3.92;;;1.23;;
33403;SDS011;19751;40.274;18.268;2024-03-17T11:54:38;6.28;;;1.92;;
33403;SDS011;19751;40.274;18.268;2024-03-17T11:57:06;3.50;;;1.55;;
33403;SDS011;19751;40.274;18.268;2024-03-17T11:59:36;2.85;;;1.80;;
33403;SDS011;19751;40.274;18.268;2024-03-17T12:02:02;3.22;;;1.67;;
33403;SDS011;19751;40.274;18.268;2024-03-17T12:04:41;4.35;;;1.30;;
33403;SDS011;19751;40.274;18.268;2024-03-17T12:07:11;3.55;;;3.03;;
33403;SDS011;19751;40.274;18.268;2024-03-17T12:09:48;3.20;;;1.58;;
33403;SDS011;19751;40.274;18.268;2024-03-17T12:12:19;3.00;;;2.10;;
33403;SDS011;19751;40.274;18.268;2024-03-17T12:14:45;7.28;;;1.85;;
33403;SDS011;19751;40.274;18.268;2024-03-17T12:17:11;9.85;;;2.47;;
33403;SDS011;19751;40.274;18.268;2024-03-17T12:19:41;3.40;;;1.70;;
33403;SDS011;19751;40.274;18.268;2024-03-17T12:22:12;2.60;;;1.25;;
33403;SDS011;19751;40.274;18.268;2024-03-17T12:24:42;3.42;;;1.70;;
33403;SDS011;19751;40.274;18.268;2024-03-17T12:27:09;4.50;;;1.77;;
33403;SDS011;19751;40.274;18.268;2024-03-17T12:29:42;8.10;;;2.25;;
33403;SDS011;19751;40.274;18.268;2024-03-17T12:34:41;4.55;;;2.10;;
33403;SDS011;19751;40.274;18.268;2024-03-17T12:37:08;3.28;;;1.40;;
33403;SDS011;19751;40.274;18.268;2024-03-17T12:39:45;1.67;;;1.30;;
33403;SDS011;19751;40.274;18.268;2024-03-17T12:42:12;2.75;;;1.85;;
33403;SDS011;19751;40.274;18.268;2024-03-17T12:44:52;3.78;;;2.00;;
33403;SDS011;19751;40.274;18.268;2024-03-17T12:47:24;5.32;;;2.00;;
33403;SDS011;19751;40.274;18.268;2024-03-17T12:49:51;2.75;;;1.60;;
33403;SDS011;19751;40.274;18.268;2024-03-17T12:52:21;2.92;;;1.20;;
33403;SDS011;19751;40.274;18.268;2024-03-17T12:54:56;5.93;;;1.50;;
33403;SDS011;19751;40.274;18.268;2024-03-17T12:57:44;3.55;;;2.22;;
33403;SDS011;19751;40.274;18.268;2024-03-17T13:00:30;3.30;;;2.05;;
33403;SDS011;19751;40.274;18.268;2024-03-17T13:02:59;3.40;;;1.75;;
33403;SDS011;19751;40.274;18.268;2024-03-17T13:05:25;4.32;;;2.35;;
33403;SDS011;19751;40.274;18.268;2024-03-17T13:07:51;7.45;;;2.40;;
33403;SDS011;19751;40.274;18.268;2024-03-17T13:10:19;5.32;;;1.80;;
33403;SDS011;19751;40.274;18.268;2024-03-17T13:12:46;4.07;;;2.30;;
33403;SDS011;19751;40.274;18.268;2024-03-17T13:15:16;5.32;;;2.35;;
33403;SDS011;19751;40.274;18.268;2024-03-17T13:17:43;5.82;;;2.20;;
33403;SDS011;19751;40.274;18.268;2024-03-17T13:20:13;6.60;;;3.08;;
33403;SDS011;19751;40.274;18.268;2024-03-17T13:22:45;10.70;;;4.15;;
33403;SDS011;19751;40.274;18.268;2024-03-17T13:25:15;4.90;;;1.90;;
33403;SDS011;19751;40.274;18.268;2024-03-17T13:27:45;6.85;;;2.10;;
33403;SDS011;19751;40.274;18.268;2024-03-17T13:30:11;6.45;;;2.00;;
33403;SDS011;19751;40.274;18.268;2024-03-17T13:32:38;6.63;;;2.65;;
33403;SDS011;19751;40.274;18.268;2024-03-17T13:35:05;4.03;;;1.85;;
33403;SDS011;19751;40.274;18.268;2024-03-17T13:37:31;19.08;;;3.35;;
33403;SDS011;19751;40.274;18.268;2024-03-17T13:39:56;7.68;;;2.20;;
33403;SDS011;19751;40.274;18.268;2024-03-17T13:42:22;4.35;;;2.17;;
33403;SDS011;19751;40.274;18.268;2024-03-17T13:44:47;9.55;;;2.78;;
33403;SDS011;19751;40.274;18.268;2024-03-17T13:47:16;3.83;;;2.60;;
33403;SDS011;19751;40.274;18.268;2024-03-17T13:49:43;5.90;;;2.10;;
33403;SDS011;19751;40.274;18.268;2024-03-17T13:52:09;5.88;;;2.05;;
33403;SDS011;19751;40.274;18.268;2024-03-17T13:54:34;9.00;;;2.95;;
33403;SDS011;19751;40.274;18.268;2024-03-17T13:56:59;6.15;;;2.97;;
33403;SDS011;19751;40.274;18.268;2024-03-17T13:59:27;4.65;;;2.30;;
33403;SDS011;19751;40.274;18.268;2024-03-17T14:01:53;6.40;;;2.45;;
33403;SDS011;19751;40.274;18.268;2024-03-17T14:04:18;5.22;;;2.25;;
33403;SDS011;19751;40.274;18.268;2024-03-17T14:06:47;4.57;;;2.25;;
33403;SDS011;19751;40.274;18.268;2024-03-17T14:09:16;6.40;;;2.08;;
33403;SDS011;19751;40.274;18.268;2024-03-17T14:11:45;10.95;;;4.65;;
33403;SDS011;19751;40.274;18.268;2024-03-17T14:14:11;5.38;;;2.70;;
33403;SDS011;19751;40.274;18.268;2024-03-17T14:16:37;10.70;;;4.47;;
33403;SDS011;19751;40.274;18.268;2024-03-17T14:19:05;4.55;;;2.20;;
33403;SDS011;19751;40.274;18.268;2024-03-17T14:21:31;3.47;;;2.22;;
33403;SDS011;19751;40.274;18.268;2024-03-17T14:23:57;5.00;;;3.35;;
33403;SDS011;19751;40.274;18.268;2024-03-17T14:26:25;5.10;;;2.60;;
33403;SDS011;19751;40.274;18.268;2024-03-17T14:28:51;7.45;;;3.05;;
33403;SDS011;19751;40.274;18.268;2024-03-17T14:31:20;7.25;;;3.65;;
33403;SDS011;19751;40.274;18.268;2024-03-17T14:33:46;4.53;;;2.50;;
33403;SDS011;19751;40.274;18.268;2024-03-17T14:36:11;3.53;;;2.53;;
33403;SDS011;19751;40.274;18.268;2024-03-17T14:38:38;11.80;;;4.97;;
33403;SDS011;19751;40.274;18.268;2024-03-17T14:41:04;9.50;;;3.22;;
33403;SDS011;19751;40.274;18.268;2024-03-17T14:43:29;9.80;;;3.10;;
33403;SDS011;19751;40.274;18.268;2024-03-17T14:45:56;5.35;;;3.40;;
33403;SDS011;19751;40.274;18.268;2024-03-17T14:48:22;7.53;;;3.50;;
33403;SDS011;19751;40.274;18.268;2024-03-17T14:50:48;9.48;;;3.58;;
33403;SDS011;19751;40.274;18.268;2024-03-17T14:53:14;6.10;;;3.83;;
33403;SDS011;19751;40.274;18.268;2024-03-17T14:55:39;10.65;;;4.15;;
33403;SDS011;19751;40.274;18.268;2024-03-17T14:58:08;8.38;;;4.43;;
33403;SDS011;19751;40.274;18.268;2024-03-17T15:00:35;10.40;;;4.00;;
33403;SDS011;19751;40.274;18.268;2024-03-17T15:03:01;7.55;;;3.33;;
33403;SDS011;19751;40.274;18.268;2024-03-17T15:05:26;7.97;;;3.10;;
33403;SDS011;19751;40.274;18.268;2024-03-17T15:07:52;4.82;;;3.00;;
33403;SDS011;19751;40.274;18.268;2024-03-17T15:10:18;9.40;;;3.85;;